Fengning, China
Current Conditions -  °F | °C
As of 5:30 PM on Friday 31 Oct 2014 (Local Time) from ZBAA Reporting Station
Haze Haze  
Wind Chill: 57°   Ceiling: Unl
Heat Index: 57°   Visibility: 2.1mi
Dew Point: 48°   Wind: 2mph
Humidity: 72%   Direction: NA
Pressure: 30.06"   Gusts: NA
Location:  41.22°N, 116.63°E
Report Text: ZBAA 310930Z VRB01MPS 3500 HZ NSC 14/09 Q1018 NOSIG
Loading
Personal Weather Stations






























Interactive Weather Map
Tropical Storm Tracking
New forecast layout! Learn more

10-Day Weather Forecast

Advertisements
Track Severe Weather on mobile